Darstellungsparameter: Aktuell verwendete Einstellungen:
Skalierung der Graphiken ... ?
xyx+y,   Skalierungsfaktor:      Skalierung: Modus: x, Faktor: 1
Darstellungszeitraum ... ?
Vom - - bis: - -   Zeitraum: 27.05.2022 - 27.05.2022
Min/Max/Avg-Anzeige ... ?
Zeige MMA aktuell
Zeige MMA Monat
Zeige MMA alles
Zeige --A aktuell
Zeige --A Monat
Zeige --A alles
Keine MMA-Anzeige
MMA:
Average (ber die Originaldaten)
MMA-Basis: 27.05.2022 - 27.05.2022
Quicknavigation für Darstellung... ?
Tage:      1T, 2T, 3T, 5T -1T -2T -3T -5T +1T +2T +3T +5T
Wochen: 1W, 2W, 3W -1W -2W -3W +1W +2W +3W
Monate: 1M, 3M, 6M -1M -3M -6M +1M +3M +6M
Jahre:    1J, 3J, 5J, 10J -1J -3J -5J -10J +1J +3J +5J +10J
Nutze für die Darstellung ... ?
Originaldaten oder Mittelwerte auf ...
Stundenbasis Tagesbasis Wochenbasis
Monatsbasis Jahresbasis      Datenbasis: Original-Daten
Darstellen als:
Statistik (Auto) Statistik J:M      Darstellung:

Der gewünschte Datumsbereich war nicht gültig/verfügbar und wurde korrigiert....
Das angegebene Enddatum (16.08.2025 23:59:59) liegt in der Zukunft.
Das angegebene Startdatum (27.07.2025 00:00:00) liegt in der Zukunft.


Zur Graphik,    zurück zur Übersicht aller Sensoren.
 
Tabellarische Datenbersicht: ?
 
Sensor: Nr:Datum:Temp:Abs-Feuchte:Windchill:Wind:
Aussen-T/F 1 27-05-2022 02:00:00 16.6 C 10.74 g/m*3 16.6 C 9.7 km/h
2 27-05-2022 02:05:00 16.6 C 10.74 g/m*3 16.6 C 4.8 km/h
3 27-05-2022 02:10:00 16.6 C 10.74 g/m*3 16.6 C 8.1 km/h
4 27-05-2022 02:15:00 16.5 C 10.67 g/m*3 16.5 C 3.2 km/h
5 27-05-2022 02:20:00 16.5 C 10.67 g/m*3 16.5 C 6.4 km/h
6 27-05-2022 02:25:00 16.5 C 10.67 g/m*3 16.5 C 6.4 km/h
7 27-05-2022 02:30:00 16.5 C 10.67 g/m*3 16.5 C 4.8 km/h
8 27-05-2022 02:35:00 16.5 C 10.67 g/m*3 16.5 C 8.1 km/h
9 27-05-2022 02:40:00 16.5 C 10.67 g/m*3 16.5 C 6.4 km/h
10 27-05-2022 02:45:00 16.5 C 10.67 g/m*3 16.5 C 8.1 km/h
11 27-05-2022 02:50:00 16.5 C 10.67 g/m*3 16.5 C 11.3 km/h
12 27-05-2022 02:55:00 16.6 C 10.59 g/m*3 16.6 C 8.1 km/h
13 27-05-2022 03:00:00 16.6 C 10.59 g/m*3 16.6 C 12.9 km/h
14 27-05-2022 03:05:00 16.6 C 10.59 g/m*3 16.6 C 12.9 km/h
15 27-05-2022 03:10:00 16.6 C 10.74 g/m*3 16.6 C 8.1 km/h
16 27-05-2022 03:15:00 16.5 C 10.67 g/m*3 16.5 C 9.7 km/h
17 27-05-2022 03:20:00 16.4 C 10.61 g/m*3 16.4 C 9.7 km/h
18 27-05-2022 03:25:00 16.4 C 10.61 g/m*3 16.4 C 8.1 km/h
19 27-05-2022 03:30:00 16.4 C 10.61 g/m*3 16.4 C 8.1 km/h
20 27-05-2022 03:35:00 16.4 C 10.61 g/m*3 16.4 C 9.7 km/h
21 27-05-2022 03:40:00 16.3 C 10.54 g/m*3 16.3 C 8.1 km/h
22 27-05-2022 03:45:00 16.3 C 10.54 g/m*3 16.3 C 8.1 km/h
23 27-05-2022 03:50:00 16.3 C 10.54 g/m*3 16.3 C 11.3 km/h
24 27-05-2022 03:55:00 16.2 C 10.48 g/m*3 16.2 C 8.1 km/h
25 27-05-2022 04:00:00 16.1 C 10.42 g/m*3 16.1 C 9.7 km/h
Sensor: Nr:Datum:Temp:Abs-Feuchte:Windchill:Wind:
Aussen-T/F 26 27-05-2022 04:05:00 16.1 C 10.42 g/m*3 16.1 C 11.3 km/h
27 27-05-2022 04:10:00 16 C 10.35 g/m*3 16 C 14.5 km/h
28 27-05-2022 04:15:00 16 C 10.49 g/m*3 16 C 6.4 km/h
29 27-05-2022 04:20:00 16 C 10.49 g/m*3 16 C 4.8 km/h
30 27-05-2022 04:25:00 16 C 10.49 g/m*3 16 C 8.1 km/h
31 27-05-2022 04:30:00 16.1 C 10.55 g/m*3 16.1 C 8.1 km/h
32 27-05-2022 04:35:00 16.1 C 10.55 g/m*3 16.1 C 6.4 km/h
33 27-05-2022 04:40:00 16.1 C 10.55 g/m*3 16.1 C 6.4 km/h
34 27-05-2022 04:45:00 16.1 C 10.55 g/m*3 16.1 C 8.1 km/h
35 27-05-2022 04:50:00 16 C 10.49 g/m*3 16 C 11.3 km/h
36 27-05-2022 04:55:00 16 C 10.35 g/m*3 16 C 16.1 km/h
37 27-05-2022 05:00:00 16 C 10.35 g/m*3 16 C 11.3 km/h
38 27-05-2022 05:05:00 15.9 C 10.29 g/m*3 15.9 C 16.1 km/h
39 27-05-2022 05:10:00 15.9 C 10.29 g/m*3 15.9 C 9.7 km/h
40 27-05-2022 05:15:00 15.9 C 10.29 g/m*3 15.9 C 12.9 km/h
41 27-05-2022 05:20:00 15.9 C 10.29 g/m*3 15.9 C 9.7 km/h
42 27-05-2022 05:25:00 15.8 C 10.23 g/m*3 15.8 C 16.1 km/h
43 27-05-2022 05:30:00 15.8 C 10.23 g/m*3 15.8 C 12.9 km/h
44 27-05-2022 05:35:00 15.7 C 10.17 g/m*3 15.7 C 11.3 km/h
45 27-05-2022 05:40:00 15.7 C 10.3 g/m*3 15.7 C 11.3 km/h
46 27-05-2022 05:45:00 15.7 C 10.3 g/m*3 15.7 C 11.3 km/h
47 27-05-2022 05:50:00 15.6 C 10.24 g/m*3 15.6 C 9.7 km/h
48 27-05-2022 05:55:00 15.6 C 10.24 g/m*3 15.6 C 9.7 km/h
49 27-05-2022 06:00:00 15.6 C 10.24 g/m*3 15.6 C 9.7 km/h
50 27-05-2022 06:05:00 15.6 C 10.37 g/m*3 15.6 C 8.1 km/h
Sensor: Nr:Datum:Temp:Abs-Feuchte:Windchill:Wind:
Aussen-T/F 51 27-05-2022 06:10:00 15.5 C 10.31 g/m*3 15.5 C 9.7 km/h
52 27-05-2022 06:15:00 15.4 C 10.25 g/m*3 15.4 C 8.1 km/h
53 27-05-2022 06:20:00 15.4 C 10.25 g/m*3 15.4 C 8.1 km/h
54 27-05-2022 06:25:00 15.4 C 10.25 g/m*3 15.4 C 8.1 km/h
55 27-05-2022 06:30:00 15.4 C 10.25 g/m*3 15.4 C 8.1 km/h
56 27-05-2022 06:35:00 15.4 C 10.38 g/m*3 15.4 C 12.9 km/h
57 27-05-2022 06:40:00 15.4 C 10.38 g/m*3 15.4 C 6.4 km/h
58 27-05-2022 06:45:00 15.4 C 10.38 g/m*3 15.4 C 9.7 km/h
59 27-05-2022 06:50:00 15.4 C 10.38 g/m*3 15.4 C 9.7 km/h
60 27-05-2022 06:55:00 15.3 C 10.32 g/m*3 15.3 C 11.3 km/h
61 27-05-2022 07:00:00 15.3 C 10.32 g/m*3 15.3 C 11.3 km/h
62 27-05-2022 07:05:00 15.3 C 10.32 g/m*3 15.3 C 9.7 km/h
63 27-05-2022 07:10:00 15.3 C 10.32 g/m*3 15.3 C 12.9 km/h
64 27-05-2022 07:15:00 15.3 C 10.45 g/m*3 15.3 C 11.3 km/h
65 27-05-2022 07:20:00 15.3 C 10.45 g/m*3 15.3 C 11.3 km/h
66 27-05-2022 07:25:00 15.3 C 10.45 g/m*3 15.3 C 9.7 km/h
67 27-05-2022 07:30:00 15.3 C 10.45 g/m*3 15.3 C 19.3 km/h
68 27-05-2022 07:35:00 15.3 C 10.45 g/m*3 15.3 C 9.7 km/h
69 27-05-2022 07:40:00 15.4 C 10.51 g/m*3 15.4 C 6.4 km/h
70 27-05-2022 07:45:00 15.4 C 10.51 g/m*3 15.4 C 8.1 km/h
71 27-05-2022 07:50:00 15.4 C 10.51 g/m*3 15.4 C 14.5 km/h
72 27-05-2022 07:55:00 15.4 C 10.51 g/m*3 15.4 C 8.1 km/h
73 27-05-2022 08:00:00 15.4 C 10.51 g/m*3 15.4 C 11.3 km/h
74 27-05-2022 08:05:00 15.4 C 10.51 g/m*3 15.4 C 8.1 km/h
75 27-05-2022 08:10:00 15.4 C 10.51 g/m*3 15.4 C 11.3 km/h
Sensor: Nr:Datum:Temp:Abs-Feuchte:Windchill:Wind:
Aussen-T/F 76 27-05-2022 08:15:00 15.4 C 10.51 g/m*3 15.4 C 12.9 km/h
77 27-05-2022 08:20:00 15.5 C 10.57 g/m*3 15.5 C 8.1 km/h
78 27-05-2022 08:25:00 15.6 C 10.64 g/m*3 15.6 C 12.9 km/h
79 27-05-2022 08:30:00 15.6 C 10.64 g/m*3 15.6 C 8.1 km/h
80 27-05-2022 08:35:00 15.6 C 10.64 g/m*3 15.6 C 8.1 km/h
81 27-05-2022 08:40:00 15.6 C 10.64 g/m*3 15.6 C 8.1 km/h
82 27-05-2022 08:45:00 15.5 C 10.57 g/m*3 15.5 C 12.9 km/h
83 27-05-2022 08:50:00 15.5 C 10.57 g/m*3 15.5 C 11.3 km/h
84 27-05-2022 08:55:00 15.5 C 10.57 g/m*3 15.5 C 12.9 km/h
85 27-05-2022 09:00:00 15.6 C 10.64 g/m*3 15.6 C 11.3 km/h
86 27-05-2022 09:05:00 15.7 C 10.7 g/m*3 15.7 C 11.3 km/h
87 27-05-2022 09:10:00 15.7 C 10.7 g/m*3 15.7 C 9.7 km/h
88 27-05-2022 09:15:00 15.8 C 10.77 g/m*3 15.8 C 8.1 km/h
89 27-05-2022 09:20:00 15.8 C 10.77 g/m*3 15.8 C 12.9 km/h
90 27-05-2022 09:25:00 15.9 C 10.83 g/m*3 15.9 C 11.3 km/h
91 27-05-2022 09:30:00 16 C 10.9 g/m*3 16 C 9.7 km/h
92 27-05-2022 09:35:00 16.1 C 10.83 g/m*3 16.1 C 12.9 km/h
93 27-05-2022 09:40:00 16.1 C 10.83 g/m*3 16.1 C 11.3 km/h
94 27-05-2022 09:45:00 16.1 C 10.83 g/m*3 16.1 C 9.7 km/h
95 27-05-2022 09:50:00 16.1 C 10.83 g/m*3 16.1 C 11.3 km/h
96 27-05-2022 09:55:00 16.2 C 10.89 g/m*3 16.2 C 11.3 km/h
97 27-05-2022 10:00:00 16.2 C 11.03 g/m*3 16.2 C 6.4 km/h
98 27-05-2022 10:05:00 16.2 C 11.03 g/m*3 16.2 C 9.7 km/h
99 27-05-2022 10:10:00 16.3 C 11.1 g/m*3 16.3 C 11.3 km/h
100 27-05-2022 10:15:00 16.3 C 11.1 g/m*3 16.3 C 8.1 km/h
Sensor: Nr:Datum:Temp:Abs-Feuchte:Windchill:Wind:
Aussen-T/F 101 27-05-2022 10:20:00 16.2 C 11.17 g/m*3 16.2 C 8.1 km/h
102 27-05-2022 10:25:00 16.3 C 11.1 g/m*3 16.3 C 8.1 km/h
103 27-05-2022 10:30:00 16.3 C 11.1 g/m*3 16.3 C 8.1 km/h
104 27-05-2022 10:35:00 16.3 C 11.1 g/m*3 16.3 C 9.7 km/h
105 27-05-2022 10:40:00 16.3 C 10.96 g/m*3 16.3 C 12.9 km/h
106 27-05-2022 10:45:00 16.4 C 11.03 g/m*3 16.4 C 14.5 km/h
107 27-05-2022 10:50:00 16.4 C 10.89 g/m*3 16.4 C 12.9 km/h
108 27-05-2022 10:55:00 16.6 C 11.16 g/m*3 16.6 C 11.3 km/h
109 27-05-2022 11:00:00 16.8 C 11.29 g/m*3 16.8 C 12.9 km/h
110 27-05-2022 11:05:00 16.9 C 11.36 g/m*3 16.9 C 11.3 km/h
111 27-05-2022 11:10:00 17.1 C 11.35 g/m*3 17.1 C 11.3 km/h
112 27-05-2022 11:15:00 17.1 C 11.21 g/m*3 17.1 C 16.1 km/h
113 27-05-2022 11:20:00 17.2 C 11.28 g/m*3 17.2 C 12.9 km/h
114 27-05-2022 11:25:00 17.4 C 11.56 g/m*3 17.4 C 11.3 km/h
115 27-05-2022 11:30:00 17.6 C 11.25 g/m*3 17.6 C 11.3 km/h
116 27-05-2022 11:35:00 17.7 C 11.32 g/m*3 17.7 C 12.9 km/h
117 27-05-2022 11:40:00 17.7 C 11.32 g/m*3 17.7 C 9.7 km/h
118 27-05-2022 11:45:00 17.6 C 11.25 g/m*3 17.6 C 14.5 km/h
119 27-05-2022 11:50:00 17.7 C 11.47 g/m*3 17.7 C 12.9 km/h
120 27-05-2022 11:55:00 17.3 C 11.34 g/m*3 17.3 C 19.3 km/h
121 27-05-2022 12:00:00 16.9 C 11.36 g/m*3 16.9 C 14.5 km/h
122 27-05-2022 12:05:00 16.4 C 11.31 g/m*3 16.4 C 12.9 km/h
123 27-05-2022 12:10:00 16.2 C 11.58 g/m*3 16.2 C 11.3 km/h
124 27-05-2022 12:15:00 15.9 C 11.38 g/m*3 15.9 C 11.3 km/h
125 27-05-2022 12:20:00 15.8 C 11.44 g/m*3 15.8 C 9.7 km/h
Sensor: Nr:Datum:Temp:Abs-Feuchte:Windchill:Wind:
Aussen-T/F 126 27-05-2022 12:25:00 15.8 C 11.44 g/m*3 15.8 C 14.5 km/h
127 27-05-2022 12:30:00 15.8 C 11.44 g/m*3 15.8 C 4.8 km/h
128 27-05-2022 12:35:00 15.8 C 11.44 g/m*3 15.8 C 11.3 km/h
129 27-05-2022 12:40:00 15.8 C 11.44 g/m*3 15.8 C 6.4 km/h
130 27-05-2022 12:45:00 15.8 C 11.58 g/m*3 15.8 C 9.7 km/h
131 27-05-2022 12:50:00 15.7 C 11.51 g/m*3 15.7 C 12.9 km/h
132 27-05-2022 12:55:00 15.7 C 11.51 g/m*3 15.7 C 8.1 km/h
133 27-05-2022 13:00:00 15.7 C 11.64 g/m*3 15.7 C 3.2 km/h
134 27-05-2022 13:05:00 15.9 C 11.78 g/m*3 15.9 C 4.8 km/h
135 27-05-2022 13:10:00 16.1 C 11.79 g/m*3 16.1 C 6.4 km/h
136 27-05-2022 13:15:00 16.2 C 11.86 g/m*3 16.2 C 12.9 km/h
137 27-05-2022 13:20:00 16.3 C 11.79 g/m*3 16.3 C 14.5 km/h
138 27-05-2022 13:25:00 16.4 C 11.86 g/m*3 16.4 C 11.3 km/h
139 27-05-2022 13:30:00 16.5 C 11.8 g/m*3 16.5 C 4.8 km/h
140 27-05-2022 13:35:00 16.7 C 12.08 g/m*3 16.7 C 4.8 km/h
141 27-05-2022 13:40:00 16.9 C 11.94 g/m*3 16.9 C 6.4 km/h
142 27-05-2022 13:45:00 17.1 C 11.5 g/m*3 17.1 C 4.8 km/h
143 27-05-2022 13:50:00 17.2 C 11.42 g/m*3 17.2 C 8.1 km/h
144 27-05-2022 13:55:00 17.6 C 12 g/m*3 17.6 C 6.4 km/h
145 27-05-2022 14:00:00 18.2 C 12.12 g/m*3 18.2 C 6.4 km/h
146 27-05-2022 14:05:00 18.9 C 11.5 g/m*3 18.9 C 11.3 km/h
147 27-05-2022 14:10:00 19.6 C 11.31 g/m*3 19.6 C 14.5 km/h
148 27-05-2022 14:15:00 19.9 C 10.82 g/m*3 19.9 C 14.5 km/h
149 27-05-2022 14:20:00 20.3 C 10.2 g/m*3 20.3 C 17.7 km/h
150 27-05-2022 14:25:00 20.4 C 10.26 g/m*3 20.4 C 14.5 km/h
Sensor: Nr:Datum:Temp:Abs-Feuchte:Windchill:Wind:
Aussen-T/F 151 27-05-2022 14:30:00 20.6 C 10.2 g/m*3 20.6 C 14.5 km/h
152 27-05-2022 14:35:00 20.9 C 10.2 g/m*3 20.9 C 11.3 km/h
153 27-05-2022 14:40:00 21.4 C 10.31 g/m*3 21.4 C 19.3 km/h
154 27-05-2022 14:45:00 21.8 C 10.36 g/m*3 21.8 C 14.5 km/h
155 27-05-2022 14:50:00 21.9 C 9.84 g/m*3 21.9 C 17.7 km/h
156 27-05-2022 14:55:00 21.8 C 9.59 g/m*3 21.8 C 9.7 km/h
157 27-05-2022 15:00:00 21.7 C 9.54 g/m*3 21.7 C 11.3 km/h
158 27-05-2022 15:05:00 21.3 C 9.51 g/m*3 21.3 C 14.5 km/h
159 27-05-2022 15:10:00 21.1 C 9.4 g/m*3 21.1 C 17.7 km/h
160 27-05-2022 15:15:00 20.9 C 9.47 g/m*3 20.9 C 14.5 km/h
161 27-05-2022 15:20:00 20.7 C 9.54 g/m*3 20.7 C 12.9 km/h
162 27-05-2022 15:25:00 20.4 C 9.2 g/m*3 20.4 C 14.5 km/h
163 27-05-2022 15:30:00 20.2 C 9.09 g/m*3 20.2 C 14.5 km/h
164 27-05-2022 15:35:00 20.5 C 8.72 g/m*3 20.5 C 17.7 km/h
165 27-05-2022 15:40:00 21.1 C 9.03 g/m*3 21.1 C 17.7 km/h
166 27-05-2022 15:45:00 21.7 C 9.54 g/m*3 21.7 C 20.9 km/h
167 27-05-2022 15:50:00 21.8 C 8.63 g/m*3 21.8 C 14.5 km/h
168 27-05-2022 15:55:00 21.8 C 8.83 g/m*3 21.8 C 16.1 km/h
169 27-05-2022 16:00:00 22.2 C 8.25 g/m*3 22.2 C 12.9 km/h
170 27-05-2022 16:05:00 22.6 C 8.44 g/m*3 22.6 C 20.9 km/h
171 27-05-2022 16:10:00 22.9 C 8.38 g/m*3 22.9 C 14.5 km/h
172 27-05-2022 16:15:00 23.2 C 8.32 g/m*3 23.2 C 14.5 km/h
173 27-05-2022 16:20:00 23.3 C 8.15 g/m*3 23.3 C 17.7 km/h
174 27-05-2022 16:25:00 23.3 C 8.15 g/m*3 23.3 C 20.9 km/h
175 27-05-2022 16:30:00 23 C 7.81 g/m*3 23 C 19.3 km/h
Sensor: Nr:Datum:Temp:Abs-Feuchte:Windchill:Wind:
Aussen-T/F 176 27-05-2022 16:35:00 22.3 C 7.9 g/m*3 22.3 C 19.3 km/h
177 27-05-2022 16:40:00 21.8 C 8.25 g/m*3 21.8 C 16.1 km/h
178 27-05-2022 16:45:00 22.2 C 8.25 g/m*3 22.2 C 14.5 km/h
179 27-05-2022 16:50:00 22.3 C 8.49 g/m*3 22.3 C 19.3 km/h
180 27-05-2022 16:55:00 22.2 C 8.44 g/m*3 22.2 C 14.5 km/h
181 27-05-2022 17:00:00 22.2 C 8.64 g/m*3 22.2 C 12.9 km/h
182 27-05-2022 17:05:00 22.4 C 8.74 g/m*3 22.4 C 14.5 km/h
183 27-05-2022 17:10:00 22.7 C 8.28 g/m*3 22.7 C 17.7 km/h
184 27-05-2022 17:15:00 22.3 C 8.49 g/m*3 22.3 C 16.1 km/h
185 27-05-2022 17:20:00 21.9 C 8.88 g/m*3 21.9 C 9.7 km/h
186 27-05-2022 17:25:00 21.8 C 8.83 g/m*3 21.8 C 25.7 km/h
187 27-05-2022 17:30:00 21.7 C 8.97 g/m*3 21.7 C 25.7 km/h
188 27-05-2022 17:35:00 21.8 C 8.83 g/m*3 21.8 C 17.7 km/h
189 27-05-2022 17:40:00 21.4 C 8.81 g/m*3 21.4 C 16.1 km/h
190 27-05-2022 17:45:00 20.9 C 8.56 g/m*3 20.9 C 16.1 km/h
191 27-05-2022 17:50:00 20.9 C 8.74 g/m*3 20.9 C 22.5 km/h
192 27-05-2022 17:55:00 21 C 8.79 g/m*3 21 C 25.7 km/h
193 27-05-2022 18:00:00 20.9 C 8.56 g/m*3 20.9 C 20.9 km/h
194 27-05-2022 18:05:00 20.8 C 8.51 g/m*3 20.8 C 17.7 km/h
195 27-05-2022 18:10:00 20.9 C 8.74 g/m*3 20.9 C 16.1 km/h
196 27-05-2022 18:15:00 21.1 C 8.66 g/m*3 21.1 C 14.5 km/h
197 27-05-2022 18:20:00 21.1 C 8.48 g/m*3 21.1 C 17.7 km/h
198 27-05-2022 18:25:00 20.9 C 8.56 g/m*3 20.9 C 17.7 km/h
199 27-05-2022 18:30:00 20.8 C 8.33 g/m*3 20.8 C 19.3 km/h
200 27-05-2022 18:35:00 20.7 C 8.46 g/m*3 20.7 C 14.5 km/h
Sensor: Nr:Datum:Temp:Abs-Feuchte:Windchill:Wind:
Aussen-T/F 201 27-05-2022 18:40:00 20.6 C 8.23 g/m*3 20.6 C 24.1 km/h
202 27-05-2022 18:45:00 20.4 C 8.31 g/m*3 20.4 C 14.5 km/h
203 27-05-2022 18:50:00 20.2 C 8.39 g/m*3 20.2 C 20.9 km/h
204 27-05-2022 18:55:00 20 C 8.3 g/m*3 20 C 20.9 km/h
205 27-05-2022 19:00:00 19.9 C 7.9 g/m*3 19.9 C 16.1 km/h
206 27-05-2022 19:05:00 19.9 C 8.25 g/m*3 19.9 C 16.1 km/h
207 27-05-2022 19:10:00 19.9 C 7.9 g/m*3 19.9 C 17.7 km/h
208 27-05-2022 19:15:00 19.8 C 8.2 g/m*3 19.8 C 11.3 km/h
209 27-05-2022 19:20:00 19.7 C 8.15 g/m*3 19.7 C 20.9 km/h
210 27-05-2022 19:25:00 19.6 C 8.27 g/m*3 19.6 C 25.7 km/h
211 27-05-2022 19:30:00 19.3 C 8.13 g/m*3 19.3 C 22.5 km/h
212 27-05-2022 19:35:00 19.2 C 8.24 g/m*3 19.2 C 22.5 km/h
213 27-05-2022 19:40:00 19.1 C 8.2 g/m*3 19.1 C 9.7 km/h
214 27-05-2022 19:45:00 18.9 C 8.1 g/m*3 18.9 C 14.5 km/h
215 27-05-2022 19:50:00 18.8 C 8.21 g/m*3 18.8 C 17.7 km/h
216 27-05-2022 19:55:00 18.6 C 7.96 g/m*3 18.6 C 16.1 km/h
217 27-05-2022 20:00:00 18.4 C 8.02 g/m*3 18.4 C 14.5 km/h
218 27-05-2022 20:05:00 18.3 C 7.97 g/m*3 18.3 C 16.1 km/h
219 27-05-2022 20:10:00 18.2 C 7.93 g/m*3 18.2 C 16.1 km/h
220 27-05-2022 20:15:00 18 C 7.83 g/m*3 18 C 20.9 km/h
221 27-05-2022 20:20:00 17.8 C 7.89 g/m*3 17.8 C 16.1 km/h
222 27-05-2022 20:25:00 17.6 C 7.8 g/m*3 17.6 C 8.1 km/h
223 27-05-2022 20:30:00 17.4 C 7.71 g/m*3 17.4 C 11.3 km/h
224 27-05-2022 20:35:00 17.3 C 7.81 g/m*3 17.3 C 16.1 km/h
225 27-05-2022 20:40:00 17.1 C 7.71 g/m*3 17.1 C 22.5 km/h
Sensor: Nr:Datum:Temp:Abs-Feuchte:Windchill:Wind:
Aussen-T/F 226 27-05-2022 20:45:00 16.9 C 7.62 g/m*3 16.9 C 19.3 km/h
227 27-05-2022 20:50:00 16.8 C 7.58 g/m*3 16.8 C 11.3 km/h
228 27-05-2022 20:55:00 16.6 C 7.49 g/m*3 16.6 C 12.9 km/h
229 27-05-2022 21:00:00 16.4 C 7.54 g/m*3 16.4 C 8.1 km/h
230 27-05-2022 21:05:00 16.3 C 7.49 g/m*3 16.3 C 8.1 km/h
231 27-05-2022 21:10:00 16.2 C 7.58 g/m*3 16.2 C 6.4 km/h
232 27-05-2022 21:15:00 16 C 7.49 g/m*3 16 C 9.7 km/h

Legende:
   Min
   Max


Maximal/Minimal-Werte vom 27.05.2022 - 27.05.2022

Sensor Min Max Avg
Temp
(Aussen-T/F)
15.3 °C
27-05-2022  06:55:00
23.3 °C
27-05-2022  16:20:00
17.7 °C
Abs-Feuchte
(Aussen-T/F)
7.49 g/m*3
27-05-2022  20:55:00
12.12 g/m*3
27-05-2022  14:00:00
9.96 g/m*3
Windchill
(Aussen-T/F)
15.3 C
27-05-2022  06:55:00
23.3 C
27-05-2022  16:20:00
17.62 C

Die Daten stammen von einer Davis Vantage Pro 2 Wetter-Station und werden unter Linux mit der Software wview2wettercgi und aufbereitet. Alle Angaben erfolgen ohne Gewähr für ihre Vollständigkeit oder Richtigkeit.
Kontakt: Rainer Krienke krienke@uni-koblenz.de . Meine Webseiten an der Uni Koblenz oder privat.
Version: $Revision: 0.78 $